createdAt,value
2019-06-01T00:00:11.991Z,101952.50
2019-06-01T00:02:40.807Z,101954.61
2019-06-01T00:05:10.542Z,101945.06
2019-06-01T00:07:39.283Z,101944.89
2019-06-01T00:10:09.854Z,101940.95
2019-06-01T00:12:39.294Z,101938.14
2019-06-01T00:15:09.087Z,101943.69
2019-06-01T00:17:37.837Z,101942.58
2019-06-01T00:20:06.603Z,101941.00
2019-06-01T00:22:35.412Z,101944.42
2019-06-01T00:25:06.924Z,101939.42
2019-06-01T00:27:35.667Z,101905.19
2019-06-01T00:30:06.826Z,101934.27
2019-06-01T00:32:35.573Z,101932.03
2019-06-01T00:35:06.824Z,101931.68
2019-06-01T00:37:35.722Z,101776.59
2019-06-01T00:40:07.102Z,101935.69
2019-06-01T00:42:36.071Z,101884.34
2019-06-01T00:45:07.265Z,101934.45
2019-06-01T00:47:36.018Z,101921.48
2019-06-01T00:50:08.221Z,101934.45
2019-06-01T00:52:36.987Z,101911.30
2019-06-01T00:55:07.194Z,101933.39
2019-06-01T00:57:36.098Z,101924.55
2019-06-01T01:00:08.161Z,101926.42
2019-06-01T01:02:36.972Z,101927.92
2019-06-01T01:05:14.562Z,101923.25
2019-06-01T01:07:44.529Z,101926.38
2019-06-01T01:10:14.179Z,101927.67
2019-06-01T01:13:00.924Z,101933.09
2019-06-01T01:15:29.768Z,101926.78
2019-06-01T01:17:58.511Z,101933.08
2019-06-01T01:20:27.263Z,101929.92
2019-06-01T01:22:56.479Z,101921.66
2019-06-01T01:25:25.896Z,101933.31
2019-06-01T01:27:54.864Z,101930.75
2019-06-01T01:30:23.687Z,101936.31
2019-06-01T01:32:53.591Z,101928.50
2019-06-01T01:35:22.924Z,101930.33
2019-06-01T01:37:52.012Z,101931.84
2019-06-01T01:40:20.819Z,101930.12
2019-06-01T01:42:50.563Z,101928.73
2019-06-01T01:45:19.946Z,101930.59
2019-06-01T01:47:49.425Z,101926.00
2019-06-01T01:50:19.354Z,101927.66
2019-06-01T01:52:48.189Z,101925.02
2019-06-01T01:55:16.929Z,101926.42
2019-06-01T01:57:45.811Z,101928.86
2019-06-01T02:00:15.972Z,101927.03
2019-06-01T02:02:46.204Z,101922.66
2019-06-01T02:05:14.996Z,101934.86
2019-06-01T02:07:43.752Z,101933.50
2019-06-01T02:10:12.638Z,101936.38
2019-06-01T02:12:41.294Z,101938.81
2019-06-01T02:15:10.832Z,101941.38
2019-06-01T02:17:39.714Z,101945.81
2019-06-01T02:20:08.573Z,101939.50
2019-06-01T02:22:37.315Z,101948.52
2019-06-01T02:25:07.557Z,101947.16
2019-06-01T02:27:36.314Z,101946.64
2019-06-01T02:30:07.825Z,101941.22
2019-06-01T02:32:36.706Z,101945.34
2019-06-01T02:35:08.751Z,101935.91
2019-06-01T02:37:37.497Z,101933.20
2019-06-01T02:40:08.193Z,101939.55
2019-06-01T02:42:36.934Z,101927.03
2019-06-01T02:45:11.062Z,101926.78
2019-06-01T02:47:39.954Z,101932.34
2019-06-01T02:50:10.220Z,101930.09
2019-06-01T02:52:39.263Z,101932.22
2019-06-01T02:55:10.985Z,101704.80
2019-06-01T02:57:39.730Z,101934.53
2019-06-01T03:00:09.984Z,101927.50
2019-06-01T03:02:39.702Z,101930.11
2019-06-01T03:05:08.453Z,101927.51
2019-06-01T03:07:39.852Z,101925.20
2019-06-01T03:10:09.010Z,101929.91
2019-06-01T03:12:40.692Z,101933.09
2019-06-01T03:15:09.454Z,101926.52
2019-06-01T03:17:41.132Z,101934.91
2019-06-01T03:20:10.089Z,101936.94
2019-06-01T03:22:40.958Z,101939.70
2019-06-01T03:25:09.831Z,101942.05
2019-06-01T03:27:40.166Z,101944.04
2019-06-01T03:30:14.540Z,101936.41
2019-06-01T03:32:41.817Z,101943.13
2019-06-01T03:35:13.095Z,101942.19
2019-06-01T03:37:42.066Z,101950.02
2019-06-01T03:40:19.717Z,101944.95
2019-06-01T03:42:41.299Z,101951.30
2019-06-01T03:45:10.238Z,101953.73
2019-06-01T03:47:38.992Z,101959.09
2019-06-01T03:50:09.136Z,101959.19
2019-06-01T03:52:38.428Z,101954.39
2019-06-01T03:55:07.806Z,101951.77
2019-06-01T03:57:37.354Z,101950.68
2019-06-01T04:00:09.410Z,101976.06
2019-06-01T04:02:38.986Z,101952.34
2019-06-01T04:05:07.860Z,101946.29
2019-06-01T04:07:38.907Z,101946.00
2019-06-01T04:10:09.820Z,101945.89
2019-06-01T04:12:39.041Z,101947.97
2019-06-01T04:15:12.801Z,101957.42
2019-06-01T04:17:38.974Z,101957.42
2019-06-01T04:20:08.257Z,101954.59
2019-06-01T04:22:37.061Z,101956.49
2019-06-01T04:25:08.299Z,101960.73
2019-06-01T04:27:37.175Z,101960.67
2019-06-01T04:30:09.426Z,101954.19
2019-06-01T04:32:49.415Z,101953.34
2019-06-01T04:35:09.072Z,101955.42
2019-06-01T04:37:37.917Z,101957.91
2019-06-01T04:40:07.530Z,101959.58
2019-06-01T04:42:36.359Z,101950.55
2019-06-01T04:45:10.789Z,101942.84
2019-06-01T04:47:39.652Z,101940.88
2019-06-01T04:50:08.856Z,101944.36
2019-06-01T04:52:37.591Z,101949.05
2019-06-01T04:55:08.940Z,101946.95
2019-06-01T04:57:38.013Z,101956.98
2019-06-01T05:00:12.623Z,101956.55
2019-06-01T05:02:38.419Z,101963.22
2019-06-01T05:05:09.348Z,101961.28
2019-06-01T05:07:38.481Z,101953.14
2019-06-01T05:10:07.834Z,101955.77
2019-06-01T05:12:38.054Z,101953.51
2019-06-01T05:15:10.116Z,101958.69
2019-06-01T05:17:39.008Z,101955.61
2019-06-01T05:20:08.267Z,101956.83
2019-06-01T05:22:37.471Z,101953.80
2019-06-01T05:25:09.033Z,101953.80
2019-06-01T05:27:38.461Z,101953.80
2019-06-01T05:30:09.482Z,101953.23
2019-06-01T05:32:38.304Z,101950.06
2019-06-01T05:35:09.660Z,101954.97
2019-06-01T05:37:40.426Z,101954.97
2019-06-01T05:40:12.441Z,101954.19
2019-06-01T05:42:41.652Z,101954.80
2019-06-01T05:45:11.377Z,101952.31
2019-06-01T05:47:40.200Z,101955.69
2019-06-01T05:50:10.601Z,101952.95
2019-06-01T05:52:39.838Z,101948.64
2019-06-01T05:55:10.287Z,101954.81
2019-06-01T05:57:39.690Z,101955.30
2019-06-01T06:00:11.326Z,101962.98
2019-06-01T06:02:40.200Z,101962.89
2019-06-01T06:05:10.609Z,101953.03
2019-06-01T06:07:39.808Z,101943.30
2019-06-01T06:10:11.843Z,101938.83
2019-06-01T06:12:40.896Z,101937.34
2019-06-01T06:15:11.349Z,101935.78
2019-06-01T06:17:40.499Z,101938.84
2019-06-01T06:20:09.273Z,101951.77
2019-06-01T06:22:41.134Z,101956.84
2019-06-01T06:25:08.552Z,101952.31
2019-06-01T06:27:37.290Z,101952.44
2019-06-01T06:30:08.050Z,101949.45
2019-06-01T06:32:36.719Z,101945.45
2019-06-01T06:35:07.265Z,101946.33
2019-06-01T06:37:37.625Z,101946.00
2019-06-01T06:40:09.547Z,101946.00
2019-06-01T06:42:38.303Z,101939.58
2019-06-01T06:45:09.773Z,101944.82
2019-06-01T06:47:38.524Z,101951.71
2019-06-01T06:50:08.426Z,101948.25
2019-06-01T06:52:37.348Z,101944.69
2019-06-01T06:55:07.336Z,101942.64
2019-06-01T06:57:36.075Z,101936.48
2019-06-01T07:00:09.663Z,101936.59
2019-06-01T07:02:38.456Z,101900.70
2019-06-01T07:05:08.563Z,101934.27
2019-06-01T07:07:37.318Z,101935.09
2019-06-01T07:10:07.771Z,101929.63
2019-06-01T07:12:36.539Z,101929.73
2019-06-01T07:15:07.682Z,101931.19
2019-06-01T07:17:36.434Z,101924.36
2019-06-01T07:20:07.631Z,101928.86
2019-06-01T07:22:36.512Z,101925.46
2019-06-01T07:25:06.545Z,101920.35
2019-06-01T07:27:35.292Z,101923.30
2019-06-01T07:30:09.322Z,101926.26
2019-06-01T07:32:38.061Z,101940.91
2019-06-01T07:35:08.335Z,101929.45
2019-06-01T07:37:37.093Z,101927.16
2019-06-01T07:40:12.963Z,101932.98
2019-06-01T07:42:38.478Z,101937.02
2019-06-01T07:45:09.204Z,101936.84
2019-06-01T07:47:37.926Z,101935.25
2019-06-01T07:50:09.785Z,101935.36
2019-06-01T07:52:38.733Z,101936.02
2019-06-01T07:55:14.185Z,101933.42
2019-06-01T07:57:44.236Z,101937.97
2019-06-01T08:00:14.012Z,101932.05
2019-06-01T08:02:42.821Z,101927.81
2019-06-01T08:05:11.657Z,101931.58
2019-06-01T08:07:40.435Z,101932.69
2019-06-01T08:10:09.298Z,101925.91
2019-06-01T08:12:38.473Z,101928.41
2019-06-01T08:15:12.031Z,101929.88
2019-06-01T08:17:40.780Z,101921.82
2019-06-01T08:20:11.042Z,101939.09
2019-06-01T08:22:41.426Z,101934.64
2019-06-01T08:25:10.161Z,101927.33
2019-06-01T08:27:41.538Z,101927.92
2019-06-01T08:30:12.911Z,101927.72
2019-06-01T08:32:42.706Z,101927.25
2019-06-01T08:35:11.964Z,101923.97
2019-06-01T08:37:40.857Z,101924.98
2019-06-01T08:40:10.034Z,101922.59
2019-06-01T08:42:42.550Z,101918.83
2019-06-01T08:45:11.884Z,101918.83
2019-06-01T08:47:40.841Z,101922.13
2019-06-01T08:50:09.833Z,101914.73
2019-06-01T08:52:40.321Z,101912.38
2019-06-01T08:55:09.656Z,101913.02
2019-06-01T08:57:38.422Z,101915.92
2019-06-01T09:00:10.299Z,101913.52
2019-06-01T09:02:39.445Z,101903.86
2019-06-01T09:05:23.080Z,101899.95
2019-06-01T09:07:38.868Z,101904.45
2019-06-01T09:10:11.408Z,101894.75
2019-06-01T09:12:40.150Z,101893.62
2019-06-01T09:15:09.615Z,101900.26
2019-06-01T09:17:38.443Z,101898.56
2019-06-01T09:20:08.485Z,101898.52
2019-06-01T09:22:37.259Z,101904.19
2019-06-01T09:25:06.794Z,101905.91
2019-06-01T09:27:36.102Z,101900.80
2019-06-01T09:30:10.712Z,101902.14
2019-06-01T09:32:39.492Z,101899.86
2019-06-01T09:35:08.627Z,101894.13
2019-06-01T09:37:39.220Z,101898.41
2019-06-01T09:40:08.877Z,101894.24
2019-06-01T09:42:52.149Z,101894.24
2019-06-01T09:45:34.567Z,101895.91
2019-06-01T09:48:16.224Z,101897.48
2019-06-01T09:50:54.583Z,101900.78
2019-06-01T09:53:23.864Z,101902.25
2019-06-01T09:56:03.315Z,101898.59
2019-06-01T09:58:54.193Z,101897.08
2019-06-01T10:01:37.195Z,101885.83
2019-06-01T10:04:21.440Z,101895.70
2019-06-01T10:06:51.277Z,101897.42
2019-06-01T10:09:20.025Z,101889.36
2019-06-01T10:11:48.794Z,101890.61
2019-06-01T10:14:17.581Z,101888.77
2019-06-01T10:16:46.358Z,101888.38
2019-06-01T10:19:15.421Z,101889.00
2019-06-01T10:21:44.282Z,101884.16
2019-06-01T10:24:13.304Z,101881.97
2019-06-01T10:26:42.119Z,101917.87
2019-06-01T10:29:11.837Z,101901.41
2019-06-01T10:31:41.652Z,101888.45
2019-06-01T10:34:11.712Z,101886.38
2019-06-01T10:36:43.499Z,101885.92
2019-06-01T10:39:12.261Z,101889.30
2019-06-01T10:41:51.837Z,101889.12
2019-06-01T10:44:21.939Z,101885.69
2019-06-01T10:46:50.830Z,101891.39
2019-06-01T10:49:19.928Z,101891.28
2019-06-01T10:51:49.216Z,101885.91
2019-06-01T10:54:19.808Z,101883.12
2019-06-01T10:56:48.676Z,101881.16
2019-06-01T10:59:18.336Z,101882.16
2019-06-01T11:01:47.086Z,101883.38
2019-06-01T11:04:15.874Z,101879.66
2019-06-01T11:06:48.635Z,101882.20
2019-06-01T11:09:15.950Z,101877.55
2019-06-01T11:11:53.714Z,101872.94
2019-06-01T11:14:31.281Z,101874.45
2019-06-01T11:17:08.697Z,101876.98
2019-06-01T11:19:57.814Z,101878.16
2019-06-01T11:22:27.871Z,101869.37
2019-06-01T11:24:56.867Z,101867.16
2019-06-01T11:27:26.482Z,101866.09
2019-06-01T11:29:55.701Z,101861.56
2019-06-01T11:32:24.470Z,101867.94
2019-06-01T11:34:53.350Z,101862.48
2019-06-01T11:37:22.225Z,101865.43
2019-06-01T11:39:51.036Z,101860.51
2019-06-01T11:42:20.239Z,101858.05
2019-06-01T11:44:49.389Z,101856.32
2019-06-01T11:47:18.332Z,101849.25
2019-06-01T11:50:09.955Z,101850.63
2019-06-01T11:52:57.331Z,101847.01
2019-06-01T11:55:48.166Z,101856.77
2019-06-01T11:58:39.398Z,101845.52
2019-06-01T12:01:22.793Z,101849.93
2019-06-01T12:04:06.744Z,101835.78
2019-06-01T12:06:37.710Z,101834.73
2019-06-01T12:09:09.653Z,101836.78
2019-06-01T12:11:39.808Z,101836.27
2019-06-01T12:14:08.941Z,101832.95
2019-06-01T12:16:38.302Z,101832.60
2019-06-01T12:19:07.506Z,101831.67
2019-06-01T12:21:37.051Z,101822.66
2019-06-01T12:24:06.514Z,101828.23
2019-06-01T12:26:37.251Z,101823.96
2019-06-01T12:29:06.543Z,101829.09
2019-06-01T12:31:35.327Z,101820.30
2019-06-01T12:34:04.274Z,101824.45
2019-06-01T12:36:33.108Z,101821.96
2019-06-01T12:39:01.857Z,101809.97
2019-06-01T12:41:30.598Z,101815.41
2019-06-01T12:44:09.956Z,101816.14
2019-06-01T12:46:40.058Z,101810.45
2019-06-01T12:49:08.867Z,101804.88
2019-06-01T12:51:37.781Z,101799.17
2019-06-01T12:54:10.633Z,101797.16
2019-06-01T12:56:40.618Z,101792.27
2019-06-01T12:59:09.781Z,101790.02
2019-06-01T13:01:38.542Z,101787.25
2019-06-01T13:04:07.325Z,101788.37
2019-06-01T13:06:36.073Z,101783.03
2019-06-01T13:09:08.261Z,101783.50
2019-06-01T13:11:37.535Z,101777.70
2019-06-01T13:14:06.449Z,101778.48
2019-06-01T13:16:35.215Z,101774.94
2019-06-01T13:19:03.982Z,101775.09
2019-06-01T13:21:32.897Z,101779.97
2019-06-01T13:24:01.642Z,101768.42
2019-06-01T13:26:30.431Z,101769.19
2019-06-01T13:28:59.618Z,101768.02
2019-06-01T13:31:28.407Z,101765.69
2019-06-01T13:33:57.151Z,101763.66
2019-06-01T13:36:26.031Z,101760.47
2019-06-01T13:38:54.904Z,101760.06
2019-06-01T13:41:23.824Z,101760.36
2019-06-01T13:43:53.551Z,101756.25
2019-06-01T13:46:22.693Z,101756.55
2019-06-01T13:48:52.677Z,101760.00
2019-06-01T13:51:22.046Z,101756.20
2019-06-01T13:53:50.856Z,101750.69
2019-06-01T13:56:19.606Z,101751.11
2019-06-01T13:58:48.358Z,101743.22
2019-06-01T14:01:17.398Z,101752.17
2019-06-01T14:03:47.191Z,101739.83
2019-06-01T14:06:16.061Z,101737.90
2019-06-01T14:08:45.049Z,101729.50
2019-06-01T14:11:13.928Z,101728.05
2019-06-01T14:13:42.771Z,101725.83
2019-06-01T14:16:12.183Z,101737.39
2019-06-01T14:18:43.012Z,101730.27
2019-06-01T14:21:12.397Z,101732.40
2019-06-01T14:23:41.328Z,101731.28
2019-06-01T14:26:10.106Z,101733.33
2019-06-01T14:28:39.248Z,101728.76
2019-06-01T14:31:08.568Z,101729.20
2019-06-01T14:33:37.322Z,101726.21
2019-06-01T14:36:06.130Z,101727.59
2019-06-01T14:38:46.612Z,101719.67
2019-06-01T14:41:05.442Z,101724.45
2019-06-01T14:43:34.529Z,101717.15
2019-06-01T14:46:03.328Z,101721.14
2019-06-01T14:48:32.267Z,101720.56
2019-06-01T14:51:01.494Z,101717.31
2019-06-01T14:53:30.951Z,101717.62
2019-06-01T14:56:02.873Z,101720.25
2019-06-01T14:58:32.941Z,101710.87
2019-06-01T15:01:02.062Z,101707.75
2019-06-01T15:03:30.882Z,101707.18
2019-06-01T15:05:59.689Z,101710.83
2019-06-01T15:08:28.468Z,101710.41
2019-06-01T15:10:58.786Z,101708.88
2019-06-01T15:13:27.686Z,101713.18
2019-06-01T15:15:57.578Z,101712.95
2019-06-01T15:18:27.183Z,101704.42
2019-06-01T15:20:55.980Z,101699.55
2019-06-01T15:23:25.025Z,101703.70
2019-06-01T15:25:54.570Z,101702.51
2019-06-01T15:28:24.103Z,101697.52
2019-06-01T15:30:52.997Z,101695.80
2019-06-01T15:33:21.783Z,101689.97
2019-06-01T15:35:52.218Z,101694.88
2019-06-01T15:38:21.205Z,101686.98
2019-06-01T15:40:51.738Z,101687.02
2019-06-01T15:43:21.745Z,101689.00
2019-06-01T15:45:51.210Z,101684.97
2019-06-01T15:48:23.254Z,101679.48
2019-06-01T15:50:51.988Z,101677.14
2019-06-01T15:53:20.759Z,101671.68
2019-06-01T15:55:49.550Z,101672.54
2019-06-01T15:58:18.372Z,101671.67
2019-06-01T16:00:47.880Z,101670.04
2019-06-01T16:03:16.615Z,101667.80
2019-06-01T16:05:45.385Z,101670.09
2019-06-01T16:08:14.192Z,101663.02
2019-06-01T16:10:42.959Z,101668.97
2019-06-01T16:13:11.703Z,101666.77
2019-06-01T16:15:40.490Z,101658.69
2019-06-01T16:18:09.249Z,101659.47
2019-06-01T16:20:38.039Z,101669.02
2019-06-01T16:23:09.530Z,101670.41
2019-06-01T16:25:39.191Z,101660.23
2019-06-01T16:28:08.182Z,101661.63
2019-06-01T16:30:41.654Z,101657.87
2019-06-01T16:33:10.707Z,101654.16
2019-06-01T16:35:39.575Z,101655.51
2019-06-01T16:38:08.377Z,101656.81
2019-06-01T16:40:37.168Z,101649.59
2019-06-01T16:43:06.007Z,101590.67
2019-06-01T16:45:34.775Z,101644.52
2019-06-01T16:48:03.902Z,101645.27
2019-06-01T16:50:32.728Z,101644.68
2019-06-01T16:53:02.132Z,101641.67
2019-06-01T16:55:31.678Z,101642.27
2019-06-01T16:58:03.733Z,101637.02
2019-06-01T17:00:31.671Z,101636.27
2019-06-01T17:03:00.645Z,101638.20
2019-06-01T17:05:29.505Z,101637.44
2019-06-01T17:07:58.740Z,101638.11
2019-06-01T17:10:28.296Z,101637.42
2019-06-01T17:12:57.037Z,101640.86
2019-06-01T17:15:26.243Z,101644.50
2019-06-01T17:17:55.089Z,101641.64
2019-06-01T17:20:38.989Z,101642.91
2019-06-01T17:23:24.184Z,101632.91
2019-06-01T17:25:38.491Z,101637.97
2019-06-01T17:28:07.308Z,101632.50
2019-06-01T17:30:36.186Z,101636.61
2019-06-01T17:33:06.525Z,101637.37
2019-06-01T17:35:36.342Z,101639.00
2019-06-01T17:38:07.455Z,101631.92
2019-06-01T17:40:41.382Z,101634.77
2019-06-01T17:43:08.784Z,101630.88
2019-06-01T17:45:39.175Z,101632.30
2019-06-01T17:48:24.808Z,101628.93
2019-06-01T17:50:42.476Z,101627.64
2019-06-01T17:53:11.265Z,101623.95
2019-06-01T17:55:40.475Z,101629.48
2019-06-01T17:58:12.532Z,101630.91
2019-06-01T18:00:42.604Z,101627.70
2019-06-01T18:03:12.454Z,101619.97
2019-06-01T18:05:41.298Z,101625.66
2019-06-01T18:08:10.498Z,101624.13
2019-06-01T18:10:53.148Z,101621.61
2019-06-01T18:13:13.316Z,101620.69
2019-06-01T18:15:42.111Z,101622.83
2019-06-01T18:18:11.005Z,101625.30
2019-06-01T18:20:40.033Z,101622.23
2019-06-01T18:23:10.179Z,101621.73
2019-06-01T18:25:39.756Z,101622.81
2019-06-01T18:28:15.048Z,101624.91
2019-06-01T18:30:39.652Z,101620.11
2019-06-01T18:33:09.053Z,101616.95
2019-06-01T18:35:38.006Z,101624.17
2019-06-01T18:38:07.814Z,101613.55
2019-06-01T18:40:37.199Z,101615.09
2019-06-01T18:43:12.202Z,101620.30
2019-06-01T18:45:41.707Z,101618.33
2019-06-01T18:48:14.457Z,101620.58
2019-06-01T18:50:44.620Z,101623.83
2019-06-01T18:53:14.180Z,101617.95
2019-06-01T18:55:43.969Z,101613.72
2019-06-01T18:58:14.805Z,101618.94
2019-06-01T19:00:47.988Z,101617.38
2019-06-01T19:03:18.833Z,101610.86
2019-06-01T19:05:47.986Z,101612.89
2019-06-01T19:08:17.709Z,101612.55
2019-06-01T19:10:48.250Z,101616.31
2019-06-01T19:13:17.925Z,101611.72
2019-06-01T19:15:47.026Z,101609.72
2019-06-01T19:18:17.066Z,101616.80
2019-06-01T19:20:48.587Z,101613.78
2019-06-01T19:23:21.682Z,101617.17
2019-06-01T19:25:48.367Z,101610.77
2019-06-01T19:28:17.810Z,101616.55
2019-06-01T19:30:48.582Z,101624.68
2019-06-01T19:33:19.415Z,101621.78
2019-06-01T19:35:50.316Z,101618.84
2019-06-01T19:38:21.942Z,101622.93
2019-06-01T19:40:50.703Z,101624.97
2019-06-01T19:43:19.718Z,101625.24
2019-06-01T19:45:49.489Z,101631.52
2019-06-01T19:48:18.958Z,101633.81
2019-06-01T19:50:48.484Z,101635.42
2019-06-01T19:53:32.493Z,101636.09
2019-06-01T19:55:56.979Z,101639.03
2019-06-01T19:58:35.772Z,101638.48
2019-06-01T20:01:12.357Z,101630.81
2019-06-01T20:03:41.501Z,101636.78
2019-06-01T20:06:15.386Z,101639.45
2019-06-01T20:08:44.661Z,101631.78
2019-06-01T20:11:13.635Z,101639.55
2019-06-01T20:13:42.835Z,101649.61
2019-06-01T20:16:14.728Z,101640.64
2019-06-01T20:18:43.930Z,101634.26
2019-06-01T20:21:13.869Z,101641.67
2019-06-01T20:23:43.125Z,101637.56
2019-06-01T20:26:13.188Z,101634.09
2019-06-01T20:28:42.307Z,101627.61
2019-06-01T20:31:13.742Z,101626.88
2019-06-01T20:33:43.760Z,101627.81
2019-06-01T20:36:13.909Z,101629.60
2019-06-01T20:38:43.569Z,101630.30
2019-06-01T20:41:13.267Z,101624.11
2019-06-01T20:43:43.593Z,101629.96
2019-06-01T20:46:14.601Z,101626.21
2019-06-01T20:48:43.870Z,101627.68
2019-06-01T20:51:14.625Z,101626.66
2019-06-01T20:53:44.697Z,101619.34
2019-06-01T20:56:13.522Z,101625.20
2019-06-01T20:58:42.279Z,101626.15
2019-06-01T21:01:13.897Z,101618.03
2019-06-01T21:03:43.426Z,101618.94
2019-06-01T21:06:13.751Z,101620.04
2019-06-01T21:08:43.946Z,101619.61
2019-06-01T21:11:13.921Z,101612.28
2019-06-01T21:13:44.159Z,101612.83
2019-06-01T21:16:14.072Z,101608.79
2019-06-01T21:18:43.246Z,101610.72
2019-06-01T21:21:12.026Z,101609.73
2019-06-01T21:23:41.003Z,101608.36
2019-06-01T21:26:09.764Z,101609.22
2019-06-01T21:28:38.575Z,101608.43
2019-06-01T21:31:07.622Z,101452.58
2019-06-01T21:33:36.430Z,101605.20
2019-06-01T21:36:15.337Z,101606.57
2019-06-01T21:38:49.555Z,101597.84
2019-06-01T21:41:25.747Z,101603.80
2019-06-01T21:44:06.755Z,101599.23
2019-06-01T21:46:38.895Z,101594.03
2019-06-01T21:49:08.071Z,101599.51
2019-06-01T21:51:36.835Z,101596.62
2019-06-01T21:54:05.931Z,101605.47
2019-06-01T21:56:34.703Z,101605.00
2019-06-01T21:59:03.513Z,101608.66
2019-06-01T22:01:34.971Z,101592.70
2019-06-01T22:04:07.487Z,101603.14
2019-06-01T22:06:39.411Z,101608.39
2019-06-01T22:09:12.659Z,101603.55
2019-06-01T22:11:42.237Z,101603.06
2019-06-01T22:14:11.947Z,101600.66
2019-06-01T22:16:40.810Z,101599.35
2019-06-01T22:19:17.561Z,101600.43
2019-06-01T22:21:47.696Z,101590.34
2019-06-01T22:24:17.677Z,101584.09
2019-06-01T22:26:47.151Z,101584.38
2019-06-01T22:29:15.967Z,101583.03
2019-06-01T22:31:44.758Z,101581.95
2019-06-01T22:34:13.505Z,101574.34
2019-06-01T22:36:42.319Z,101568.63
2019-06-01T22:39:11.074Z,101573.83
2019-06-01T22:41:39.849Z,101571.67
2019-06-01T22:44:08.734Z,101569.78
2019-06-01T22:46:37.496Z,101565.95
2019-06-01T22:49:06.403Z,101559.71
2019-06-01T22:51:35.155Z,101558.05
2019-06-01T22:54:04.012Z,101559.14
2019-06-01T22:56:32.851Z,101555.08
2019-06-01T22:59:01.635Z,101460.67
2019-06-01T23:01:30.433Z,101545.76
2019-06-01T23:03:59.319Z,101543.33
2019-06-01T23:06:29.218Z,101543.59
2019-06-01T23:08:58.541Z,101548.24
2019-06-01T23:11:27.555Z,101538.42
2019-06-01T23:13:56.372Z,101544.96
2019-06-01T23:16:25.601Z,101546.34
2019-06-01T23:18:54.863Z,101549.05
2019-06-01T23:21:23.789Z,101546.05
2019-06-01T23:23:52.567Z,101534.30
2019-06-01T23:26:22.103Z,101541.68
2019-06-01T23:28:51.967Z,101536.48
2019-06-01T23:31:22.317Z,101544.70
2019-06-01T23:33:51.227Z,101547.69
2019-06-01T23:36:22.393Z,101541.41
2019-06-01T23:38:52.206Z,101529.97
2019-06-01T23:41:22.453Z,101532.69
2019-06-01T23:44:09.913Z,101524.77
2019-06-01T23:46:24.919Z,101522.83
2019-06-01T23:48:54.511Z,101516.02
2019-06-01T23:51:23.488Z,101522.02
2019-06-01T23:53:52.282Z,101517.93
2019-06-01T23:56:21.063Z,101522.56
2019-06-01T23:58:49.861Z,101517.08
